createdAt,value
2022-07-28T04:01:54.042Z,98692.56
2022-07-28T04:06:05.655Z,98691.72
2022-07-28T04:10:17.855Z,98689.47
2022-07-28T04:14:29.398Z,98698.38
2022-07-28T04:18:40.931Z,98693.50
2022-07-28T04:22:53.263Z,98703.38
2022-07-28T04:27:04.953Z,98703.00
2022-07-28T04:31:16.548Z,98700.59
2022-07-28T04:35:28.377Z,98696.59
2022-07-28T04:39:40.084Z,98698.28
2022-07-28T04:43:52.236Z,98693.34
2022-07-28T04:48:04.058Z,98705.00
2022-07-28T04:52:15.866Z,98692.09
2022-07-28T04:56:27.549Z,98696.19
2022-07-28T05:00:39.423Z,98694.59
2022-07-28T05:04:51.028Z,98694.19
2022-07-28T05:09:03.619Z,98693.81
2022-07-28T05:13:15.183Z,98691.78
2022-07-28T05:17:27.330Z,98705.16
2022-07-28T05:21:38.905Z,98704.75
2022-07-28T05:25:52.469Z,98705.19
2022-07-28T05:30:04.561Z,98697.91
2022-07-28T05:34:16.517Z,98698.75
2022-07-28T05:38:30.267Z,98700.00
2022-07-28T05:42:43.319Z,98703.84
2022-07-28T05:46:55.582Z,98706.06
2022-07-28T05:51:07.128Z,98700.81
2022-07-28T05:55:19.294Z,98697.78
2022-07-28T05:59:30.908Z,98699.22
2022-07-28T06:03:42.771Z,98704.47
2022-07-28T06:07:55.153Z,98698.00
2022-07-28T06:12:07.047Z,98707.34
2022-07-28T06:16:20.627Z,98700.88
2022-07-28T06:20:32.404Z,98704.88
2022-07-28T06:24:43.933Z,98692.34
2022-07-28T06:28:55.452Z,98692.38
2022-07-28T06:33:07.750Z,98696.19
2022-07-28T06:37:19.294Z,98699.66
2022-07-28T06:41:30.869Z,98702.13
2022-07-28T06:45:44.898Z,98698.47
2022-07-28T06:49:56.433Z,98700.25
2022-07-28T06:54:11.217Z,98707.34
2022-07-28T06:58:23.135Z,98701.56
2022-07-28T07:02:41.864Z,98697.38
2022-07-28T07:06:53.436Z,98694.66
2022-07-28T07:11:05.153Z,98692.13
2022-07-28T07:15:16.721Z,98689.97
2022-07-28T07:19:28.248Z,98690.81
2022-07-28T07:23:39.843Z,98686.59
2022-07-28T07:27:51.459Z,98690.91
2022-07-28T07:32:06.860Z,98689.16
2022-07-28T07:36:22.412Z,98689.16
2022-07-28T07:40:34.106Z,98672.59
2022-07-28T07:44:50.014Z,98669.78
2022-07-28T07:49:02.047Z,98658.25
2022-07-28T07:53:13.617Z,98670.09
2022-07-28T07:57:25.142Z,98662.31
2022-07-28T08:01:36.749Z,98656.81
2022-07-28T08:05:56.372Z,98665.94
2022-07-28T08:10:09.586Z,98650.81
2022-07-28T08:14:21.198Z,98663.25
2022-07-28T08:18:32.920Z,98662.53
2022-07-28T08:22:51.949Z,98658.72
2022-07-28T08:27:03.887Z,98652.66
2022-07-28T08:31:20.788Z,98656.19
2022-07-28T08:35:34.657Z,98661.75
2022-07-28T08:39:47.013Z,98656.91
2022-07-28T08:43:59.831Z,98647.03
2022-07-28T08:48:12.214Z,98652.06
2022-07-28T08:52:24.935Z,98645.41
2022-07-28T08:56:42.110Z,98640.25
2022-07-28T09:01:00.448Z,98641.34
2022-07-28T09:05:12.131Z,98640.31
2022-07-28T09:09:23.850Z,98647.22
2022-07-28T09:13:35.851Z,98643.91
2022-07-28T09:17:47.411Z,98632.28
2022-07-28T09:21:59.588Z,98616.56
2022-07-28T09:26:12.889Z,98632.84
2022-07-28T09:30:30.234Z,98622.88
2022-07-28T09:34:46.324Z,98627.63
2022-07-28T09:38:59.022Z,98619.78
2022-07-28T09:43:10.749Z,98610.25
2022-07-28T09:47:25.011Z,98607.66
2022-07-28T09:51:36.714Z,98608.16
2022-07-28T09:56:01.696Z,98608.50
2022-07-28T10:00:28.425Z,98611.44
2022-07-28T10:04:44.267Z,98602.25
2022-07-28T10:08:59.198Z,98585.53
2022-07-28T10:13:10.764Z,98582.81
2022-07-28T10:17:23.547Z,98572.38
2022-07-28T10:21:41.442Z,98563.03
2022-07-28T10:25:54.032Z,98562.56
2022-07-28T10:30:06.240Z,98553.97
2022-07-28T10:34:24.531Z,98563.88
2022-07-28T10:38:37.026Z,98554.31
2022-07-28T10:42:48.542Z,98556.56
2022-07-28T10:47:00.724Z,98543.47
2022-07-28T10:51:12.534Z,98555.84
2022-07-28T10:55:33.184Z,98550.25
2022-07-28T11:00:12.705Z,98545.97
2022-07-28T11:04:47.777Z,98536.91
2022-07-28T11:09:20.480Z,98539.06
2022-07-28T11:13:35.634Z,98537.44
2022-07-28T11:18:05.097Z,98529.94
2022-07-28T11:22:21.341Z,98531.53
2022-07-28T11:26:36.050Z,98528.31
2022-07-28T11:30:47.567Z,98526.16
2022-07-28T11:35:08.312Z,98522.97
2022-07-28T11:39:23.560Z,98511.22
2022-07-28T11:43:37.416Z,98516.28
2022-07-28T11:48:21.465Z,98518.66
2022-07-28T11:52:33.168Z,98518.44
2022-07-28T11:56:45.125Z,98511.69
2022-07-28T12:01:18.920Z,98514.94
2022-07-28T12:05:34.248Z,98500.44
2022-07-28T12:09:46.227Z,98508.16
2022-07-28T12:14:17.345Z,98500.09
2022-07-28T12:18:29.333Z,98506.28
2022-07-28T12:22:41.963Z,98496.50
2022-07-28T12:26:53.535Z,98496.94
2022-07-28T12:31:12.656Z,98494.59
2022-07-28T12:35:25.429Z,98495.94
2022-07-28T12:39:39.646Z,98495.31
2022-07-28T12:43:53.359Z,98495.88
2022-07-28T12:48:08.646Z,98487.16
2022-07-28T12:52:22.928Z,98488.81
2022-07-28T12:56:49.068Z,98476.53
2022-07-28T13:01:01.389Z,98483.41
2022-07-28T13:05:27.321Z,98471.94
2022-07-28T13:09:53.247Z,98470.72
2022-07-28T13:14:12.514Z,98474.50
2022-07-28T13:18:39.180Z,98464.78
2022-07-28T13:22:52.372Z,98468.69
2022-07-28T13:27:04.261Z,98467.06
2022-07-28T13:31:15.833Z,98474.66
2022-07-28T13:35:28.960Z,98458.88
2022-07-28T13:39:40.650Z,98462.59
2022-07-28T13:43:52.327Z,98456.19
2022-07-28T13:48:04.497Z,98459.75
2022-07-28T13:52:33.118Z,98457.91
2022-07-28T13:56:47.165Z,98468.59
2022-07-28T14:00:59.370Z,98452.91
2022-07-28T14:05:10.975Z,98464.41
2022-07-28T14:09:23.006Z,98457.88
2022-07-28T14:13:38.192Z,98462.00
2022-07-28T14:17:50.230Z,98464.06
2022-07-28T14:22:02.713Z,98455.28
2022-07-28T14:26:35.042Z,98451.28
2022-07-28T14:30:45.831Z,98450.50
2022-07-28T14:34:57.395Z,98448.88
2022-07-28T14:39:12.603Z,98444.31
2022-07-28T14:43:24.337Z,98443.59
2022-07-28T14:47:43.953Z,98444.94
2022-07-28T14:51:57.818Z,98437.25
2022-07-28T14:56:14.492Z,98453.00
2022-07-28T15:00:29.454Z,98454.91
2022-07-28T15:04:41.308Z,98460.06
2022-07-28T15:08:55.089Z,98462.50
2022-07-28T15:13:06.612Z,98458.78
2022-07-28T15:17:19.588Z,98456.66
2022-07-28T15:21:36.210Z,98460.41
2022-07-28T15:25:48.045Z,98455.09
2022-07-28T15:29:59.886Z,98453.44
2022-07-28T15:34:14.613Z,98440.63
2022-07-28T15:38:31.643Z,98440.88
2022-07-28T15:42:43.571Z,98436.84
2022-07-28T15:46:55.247Z,98433.09
2022-07-28T15:51:07.453Z,98431.69
2022-07-28T15:55:20.371Z,98437.06
2022-07-28T15:59:48.803Z,98441.03
2022-07-28T16:04:02.323Z,98425.75
2022-07-28T16:08:14.037Z,98421.16
2022-07-28T16:12:25.921Z,98416.81
2022-07-28T16:35:20.753Z,98408.47
2022-07-28T16:39:32.524Z,98412.16
2022-07-28T16:43:44.849Z,98411.91
2022-07-28T16:47:57.780Z,98408.16
2022-07-28T16:52:09.311Z,98419.78
2022-07-28T16:56:21.660Z,98410.72
2022-07-28T17:00:33.262Z,98410.63
2022-07-28T17:04:45.841Z,98424.88
2022-07-28T17:08:57.498Z,98420.38
2022-07-28T17:13:11.892Z,98419.59
2022-07-28T17:17:24.805Z,98412.63
2022-07-28T17:21:37.364Z,98423.38
2022-07-28T17:30:21.968Z,98423.97
2022-07-28T17:34:34.645Z,98420.81
2022-07-28T17:38:46.176Z,98417.66
2022-07-28T17:42:57.758Z,98417.13
2022-07-28T17:47:09.512Z,98432.41
2022-07-28T17:51:21.167Z,98421.44
2022-07-28T17:55:57.817Z,98423.59
2022-07-28T18:00:07.974Z,98420.44
2022-07-28T18:04:23.518Z,98422.03
2022-07-28T18:08:35.054Z,98431.91
2022-07-28T18:12:46.740Z,98419.38
2022-07-28T18:16:59.059Z,98426.03
2022-07-28T18:21:10.621Z,98436.75
2022-07-28T18:25:22.165Z,98433.25
2022-07-28T18:29:38.583Z,98447.69
2022-07-28T18:33:50.483Z,98447.69
2022-07-28T18:38:02.011Z,98453.56
2022-07-28T18:42:13.802Z,98456.72
2022-07-28T18:46:27.360Z,98459.16
2022-07-28T18:50:40.824Z,98455.66
2022-07-28T18:54:53.284Z,98455.38
2022-07-28T18:59:04.804Z,98459.91
2022-07-28T19:03:16.411Z,98467.06
2022-07-28T19:07:28.159Z,98468.09
2022-07-28T19:11:45.274Z,98463.00
2022-07-28T19:15:57.712Z,98464.00
2022-07-28T19:20:11.778Z,98471.72
2022-07-28T19:24:23.309Z,98477.50
2022-07-28T19:28:34.880Z,98482.25
2022-07-28T19:32:46.404Z,98480.84
2022-07-28T19:36:58.418Z,98485.03
2022-07-28T19:41:12.846Z,98486.38
2022-07-28T19:45:24.901Z,98496.22
2022-07-28T19:49:40.431Z,98501.25
2022-07-28T19:53:52.351Z,98501.41
2022-07-28T19:58:04.163Z,98501.84
2022-07-28T20:02:15.991Z,98511.81
2022-07-28T20:06:27.756Z,98511.75
2022-07-28T20:10:39.554Z,98519.06
2022-07-28T20:14:51.114Z,98521.84
2022-07-28T20:19:02.769Z,98528.56
2022-07-28T20:23:14.906Z,98541.41
2022-07-28T20:27:26.485Z,98544.22
2022-07-28T20:31:38.492Z,98545.63
2022-07-28T20:35:50.205Z,98552.72
2022-07-28T20:40:09.211Z,98552.16
2022-07-28T20:44:29.469Z,98550.47
2022-07-28T20:48:42.006Z,98554.69
2022-07-28T20:52:53.580Z,98561.94
2022-07-28T20:57:05.248Z,98552.53
2022-07-28T21:01:16.854Z,98569.19
2022-07-28T21:05:35.703Z,98565.88
2022-07-28T21:09:47.726Z,98570.63
2022-07-28T21:13:59.388Z,98567.41
2022-07-28T21:18:11.001Z,98578.50
2022-07-28T21:22:23.010Z,98575.22
2022-07-28T21:26:34.577Z,98575.47
